Time;durP1;ratioP1;P1;durP2;ratioP2;P2;SDS_P1;SDS_P2;PMS_P1;PMS_P2;Temp;Humidity;BMP_temperature;BMP_pressure;BME280_temperature;BME280_humidity;BME280_pressure;Samples;Min_cycle;Max_cycle;Signal;HPM_P1;HPM_P2
2023/04/02 00:00:10;;;;;;;1.5;1.5;;;;;;;6.8;100.0;100860;;;;
2023/04/02 00:01:00;;;;;;;1.5;1.5;;;;;;;6.8;100.0;100860;;;;
2023/04/02 00:02:12;;;;;;;1.5;1.5;;;;;;;6.7;100.0;100870;;;;
2023/04/02 00:03:02;;;;;;;1.5;1.5;;;;;;;6.7;100.0;100870;;;;
2023/04/02 00:04:02;;;;;;;1.5;1.5;;;;;;;6.8;100.0;100870;;;;
2023/04/02 00:05:10;;;;;;;1.4;1.4;;;;;;;6.8;100.0;100870;;;;
2023/04/02 00:06:01;;;;;;;1.4;1.4;;;;;;;6.6;100.0;100880;;;;
2023/04/02 00:07:14;;;;;;;1.4;1.4;;;;;;;6.6;100.0;100880;;;;
2023/04/02 00:08:02;;;;;;;1.4;1.4;;;;;;;6.4;100.0;100880;;;;
2023/04/02 00:09:02;;;;;;;1.4;1.4;;;;;;;6.4;100.0;100880;;;;
2023/04/02 00:10:01;;;;;;;1.4;1.4;;;;;;;6.4;100.0;100880;;;;
2023/04/02 00:11:00;;;;;;;1.4;1.4;;;;;;;6.4;100.0;100880;;;;
2023/04/02 00:12:14;;;;;;;1.4;1.4;;;;;;;6.3;100.0;100880;;;;
2023/04/02 00:13:03;;;;;;;1.4;1.4;;;;;;;6.3;100.0;100880;;;;
2023/04/02 00:14:01;;;;;;;1.4;1.4;;;;;;;6.5;100.0;100890;;;;
2023/04/02 00:15:00;;;;;;;1.4;1.4;;;;;;;6.5;100.0;100890;;;;
2023/04/02 00:16:02;;;;;;;1.4;1.4;;;;;;;6.5;100.0;100890;;;;
2023/04/02 00:17:02;;;;;;;1.4;1.4;;;;;;;6.5;100.0;100890;;;;
2023/04/02 00:18:00;;;;;;;1.4;1.4;;;;;;;6.4;100.0;100890;;;;
2023/04/02 00:19:03;;;;;;;1.4;1.4;;;;;;;6.4;100.0;100890;;;;
2023/04/02 00:20:05;;;;;;;1.4;1.4;;;;;;;6.6;100.0;100890;;;;
2023/04/02 00:21:00;;;;;;;1.4;1.4;;;;;;;6.6;100.0;100890;;;;
2023/04/02 00:22:00;;;;;;;1.4;1.4;;;;;;;6.4;100.0;100890;;;;
2023/04/02 00:23:01;;;;;;;1.4;1.4;;;;;;;6.4;100.0;100890;;;;
2023/04/02 00:24:01;;;;;;;1.4;1.4;;;;;;;6.3;100.0;100890;;;;
2023/04/02 00:25:02;;;;;;;1.3;1.3;;;;;;;6.3;100.0;100890;;;;
2023/04/02 00:26:00;;;;;;;1.3;1.3;;;;;;;6.2;100.0;100900;;;;
2023/04/02 00:27:00;;;;;;;1.3;1.3;;;;;;;6.2;100.0;100900;;;;
2023/04/02 00:28:01;;;;;;;1.3;1.3;;;;;;;6.3;100.0;100900;;;;
2023/04/02 00:29:01;;;;;;;1.3;1.3;;;;;;;6.3;100.0;100900;;;;
2023/04/02 00:30:00;;;;;;;1.3;1.3;;;;;;;6.2;100.0;100910;;;;
2023/04/02 00:31:00;;;;;;;1.3;1.3;;;;;;;6.2;100.0;100910;;;;
2023/04/02 00:32:00;;;;;;;1.3;1.3;;;;;;;6.3;100.0;100900;;;;
2023/04/02 00:33:00;;;;;;;1.3;1.3;;;;;;;6.3;100.0;100900;;;;
2023/04/02 00:34:01;;;;;;;1.3;1.3;;;;;;;6.2;100.0;100910;;;;
2023/04/02 00:35:00;;;;;;;1.3;1.3;;;;;;;6.2;100.0;100910;;;;
2023/04/02 00:36:05;;;;;;;1.3;1.3;;;;;;;6.3;100.0;100920;;;;
2023/04/02 00:37:01;;;;;;;1.3;1.3;;;;;;;6.3;100.0;100920;;;;
2023/04/02 00:38:00;;;;;;;1.3;1.3;;;;;;;6.3;100.0;100920;;;;
2023/04/02 00:39:01;;;;;;;1.3;1.3;;;;;;;6.3;100.0;100920;;;;
2023/04/02 00:40:05;;;;;;;1.3;1.3;;;;;;;6.3;100.0;100930;;;;
2023/04/02 00:41:02;;;;;;;1.3;1.3;;;;;;;6.3;100.0;100930;;;;
2023/04/02 00:42:04;;;;;;;1.3;1.3;;;;;;;6.3;100.0;100930;;;;
2023/04/02 00:43:03;;;;;;;1.3;1.3;;;;;;;6.3;100.0;100930;;;;
2023/04/02 00:44:01;;;;;;;1.3;1.3;;;;;;;6.4;100.0;100930;;;;
2023/04/02 00:45:01;;;;;;;1.7;1.7;;;;;;;6.4;100.0;100930;;;;
2023/04/02 00:46:03;;;;;;;1.7;1.7;;;;;;;6.4;100.0;100940;;;;
2023/04/02 00:47:06;;;;;;;1.7;1.7;;;;;;;6.4;100.0;100940;;;;
2023/04/02 00:48:10;;;;;;;1.7;1.7;;;;;;;6.1;100.0;100940;;;;
2023/04/02 00:49:07;;;;;;;1.7;1.7;;;;;;;6.1;100.0;100940;;;;
2023/04/02 00:50:06;;;;;;;1.7;1.7;;;;;;;6.0;100.0;100940;;;;
2023/04/02 00:51:08;;;;;;;1.7;1.7;;;;;;;6.0;100.0;100940;;;;
2023/04/02 00:52:03;;;;;;;1.7;1.7;;;;;;;6.1;100.0;100950;;;;
2023/04/02 00:53:04;;;;;;;1.7;1.7;;;;;;;6.1;100.0;100950;;;;
2023/04/02 00:54:03;;;;;;;1.7;1.7;;;;;;;6.0;100.0;100950;;;;
2023/04/02 00:55:01;;;;;;;1.7;1.7;;;;;;;6.0;100.0;100950;;;;
2023/04/02 00:56:01;;;;;;;1.7;1.7;;;;;;;6.0;100.0;100950;;;;
2023/04/02 00:57:00;;;;;;;1.7;1.7;;;;;;;6.0;100.0;100950;;;;
2023/04/02 00:58:00;;;;;;;1.7;1.7;;;;;;;6.1;100.0;100950;;;;
2023/04/02 00:59:00;;;;;;;1.7;1.7;;;;;;;6.1;100.0;100950;;;;
2023/04/02 01:00:10;;;;;;;1.7;1.7;;;;;;;6.0;100.0;100950;;;;
2023/04/02 01:01:00;;;;;;;1.7;1.7;;;;;;;6.0;100.0;100950;;;;
2023/04/02 01:02:10;;;;;;;1.7;1.7;;;;;;;6.0;100.0;100960;;;;
2023/04/02 01:03:10;;;;;;;1.7;1.7;;;;;;;6.0;100.0;100960;;;;
2023/04/02 01:04:01;;;;;;;1.7;1.7;;;;;;;6.0;100.0;100960;;;;
2023/04/02 01:05:02;;;;;;;1.5;1.5;;;;;;;6.0;100.0;100960;;;;
2023/04/02 01:06:09;;;;;;;1.5;1.5;;;;;;;6.0;100.0;100970;;;;
2023/04/02 01:07:03;;;;;;;1.5;1.5;;;;;;;6.0;100.0;100970;;;;
2023/04/02 01:08:06;;;;;;;1.5;1.5;;;;;;;6.0;100.0;100970;;;;
2023/04/02 01:09:08;;;;;;;1.5;1.5;;;;;;;6.0;100.0;100970;;;;
2023/04/02 01:10:10;;;;;;;1.5;1.5;;;;;;;6.1;100.0;100970;;;;
2023/04/02 01:11:08;;;;;;;1.5;1.5;;;;;;;6.1;100.0;100970;;;;
2023/04/02 01:12:01;;;;;;;1.5;1.5;;;;;;;6.1;100.0;100980;;;;
2023/04/02 01:13:00;;;;;;;1.5;1.5;;;;;;;6.1;100.0;100980;;;;
2023/04/02 01:14:00;;;;;;;1.5;1.5;;;;;;;6.2;100.0;100980;;;;
2023/04/02 01:15:08;;;;;;;1.5;1.5;;;;;;;6.2;100.0;100980;;;;
2023/04/02 01:16:10;;;;;;;1.5;1.5;;;;;;;6.2;100.0;100980;;;;
2023/04/02 01:17:07;;;;;;;1.5;1.5;;;;;;;6.2;100.0;100980;;;;
2023/04/02 01:18:12;;;;;;;1.5;1.5;;;;;;;6.0;100.0;100990;;;;
2023/04/02 01:19:03;;;;;;;1.5;1.5;;;;;;;6.0;100.0;100990;;;;
2023/04/02 01:20:06;;;;;;;1.5;1.5;;;;;;;6.0;100.0;100990;;;;
2023/04/02 01:21:10;;;;;;;1.5;1.5;;;;;;;6.0;100.0;100990;;;;
2023/04/02 01:22:10;;;;;;;1.5;1.5;;;;;;;5.8;100.0;100990;;;;
2023/04/02 01:23:01;;;;;;;1.5;1.5;;;;;;;5.8;100.0;100990;;;;
2023/04/02 01:24:00;;;;;;;1.5;1.5;;;;;;;5.8;100.0;100990;;;;
2023/04/02 01:25:03;;;;;;;2.0;2.0;;;;;;;5.8;100.0;100990;;;;
2023/04/02 01:26:10;;;;;;;2.0;2.0;;;;;;;5.9;100.0;101000;;;;
2023/04/02 01:27:01;;;;;;;2.0;2.0;;;;;;;5.9;100.0;101000;;;;
2023/04/02 01:28:07;;;;;;;2.0;2.0;;;;;;;6.0;100.0;101000;;;;
2023/04/02 01:29:02;;;;;;;2.0;2.0;;;;;;;6.0;100.0;101000;;;;
2023/04/02 01:30:02;;;;;;;2.0;2.0;;;;;;;5.9;100.0;101000;;;;
2023/04/02 01:31:01;;;;;;;2.0;2.0;;;;;;;5.9;100.0;101000;;;;
2023/04/02 01:32:03;;;;;;;2.0;2.0;;;;;;;5.9;100.0;101010;;;;
2023/04/02 01:33:00;;;;;;;2.0;2.0;;;;;;;5.9;100.0;101010;;;;
2023/04/02 01:34:02;;;;;;;2.0;2.0;;;;;;;5.9;100.0;101010;;;;
2023/04/02 01:35:00;;;;;;;2.0;2.0;;;;;;;5.9;100.0;101010;;;;
2023/04/02 01:36:06;;;;;;;2.0;2.0;;;;;;;5.9;100.0;101010;;;;
2023/04/02 01:37:00;;;;;;;2.0;2.0;;;;;;;5.9;100.0;101010;;;;
2023/04/02 01:38:10;;;;;;;2.0;2.0;;;;;;;5.9;100.0;101010;;;;
2023/04/02 01:39:05;;;;;;;2.0;2.0;;;;;;;5.9;100.0;101010;;;;
2023/04/02 01:40:10;;;;;;;2.0;2.0;;;;;;;5.9;100.0;101020;;;;
2023/04/02 01:41:08;;;;;;;2.0;2.0;;;;;;;5.9;100.0;101020;;;;
2023/04/02 01:42:00;;;;;;;2.0;2.0;;;;;;;5.8;100.0;101030;;;;
2023/04/02 01:43:01;;;;;;;2.0;2.0;;;;;;;5.8;100.0;101030;;;;
2023/04/02 01:44:06;;;;;;;2.0;2.0;;;;;;;5.7;100.0;101020;;;;
2023/04/02 01:45:03;;;;;;;1.7;1.7;;;;;;;5.7;100.0;101020;;;;
2023/04/02 01:46:04;;;;;;;1.7;1.7;;;;;;;5.7;100.0;101020;;;;
2023/04/02 01:47:02;;;;;;;1.7;1.7;;;;;;;5.7;100.0;101020;;;;
2023/04/02 01:48:10;;;;;;;1.7;1.7;;;;;;;5.7;100.0;101040;;;;
2023/04/02 01:49:02;;;;;;;1.7;1.7;;;;;;;5.7;100.0;101040;;;;
2023/04/02 01:50:03;;;;;;;1.7;1.7;;;;;;;5.8;100.0;101030;;;;
2023/04/02 01:51:06;;;;;;;1.7;1.7;;;;;;;5.8;100.0;101030;;;;
2023/04/02 01:52:00;;;;;;;1.7;1.7;;;;;;;5.5;100.0;101040;;;;
2023/04/02 01:53:02;;;;;;;1.7;1.7;;;;;;;5.5;100.0;101040;;;;
2023/04/02 01:54:02;;;;;;;1.7;1.7;;;;;;;5.7;100.0;101040;;;;
2023/04/02 01:55:00;;;;;;;1.7;1.7;;;;;;;5.7;100.0;101040;;;;
2023/04/02 01:56:01;;;;;;;1.7;1.7;;;;;;;5.8;100.0;101050;;;;
2023/04/02 01:57:00;;;;;;;1.7;1.7;;;;;;;5.8;100.0;101050;;;;
2023/04/02 01:58:02;;;;;;;1.7;1.7;;;;;;;5.6;100.0;101050;;;;
2023/04/02 01:59:01;;;;;;;1.7;1.7;;;;;;;5.6;100.0;101050;;;;
2023/04/02 02:00:01;;;;;;;1.7;1.7;;;;;;;5.6;100.0;101060;;;;
2023/04/02 02:01:02;;;;;;;1.7;1.7;;;;;;;5.6;100.0;101060;;;;
2023/04/02 02:02:02;;;;;;;1.7;1.7;;;;;;;5.6;100.0;101060;;;;
2023/04/02 02:03:01;;;;;;;1.7;1.7;;;;;;;5.6;100.0;101060;;;;
2023/04/02 02:04:00;;;;;;;1.7;1.7;;;;;;;5.5;100.0;101070;;;;
2023/04/02 02:05:00;;;;;;;1.7;1.7;;;;;;;5.5;100.0;101070;;;;
2023/04/02 02:06:01;;;;;;;1.7;1.7;;;;;;;5.6;100.0;101060;;;;
2023/04/02 02:07:01;;;;;;;1.7;1.7;;;;;;;5.6;100.0;101060;;;;
2023/04/02 02:08:01;;;;;;;1.7;1.7;;;;;;;5.6;100.0;101080;;;;
2023/04/02 02:09:03;;;;;;;1.7;1.7;;;;;;;5.6;100.0;101080;;;;
2023/04/02 02:10:01;;;;;;;1.7;1.7;;;;;;;5.5;100.0;101070;;;;
2023/04/02 02:11:01;;;;;;;1.7;1.7;;;;;;;5.5;100.0;101070;;;;
2023/04/02 02:12:01;;;;;;;1.7;1.7;;;;;;;5.6;100.0;101080;;;;
2023/04/02 02:13:00;;;;;;;1.7;1.7;;;;;;;5.6;100.0;101080;;;;
2023/04/02 02:14:04;;;;;;;1.7;1.7;;;;;;;5.5;100.0;101090;;;;
2023/04/02 02:15:00;;;;;;;1.7;1.7;;;;;;;5.5;100.0;101090;;;;
2023/04/02 02:16:02;;;;;;;1.7;1.7;;;;;;;5.4;100.0;101090;;;;
2023/04/02 02:17:01;;;;;;;1.7;1.7;;;;;;;5.4;100.0;101090;;;;
2023/04/02 02:18:03;;;;;;;1.7;1.7;;;;;;;5.4;100.0;101090;;;;
2023/04/02 02:19:01;;;;;;;1.7;1.7;;;;;;;5.4;100.0;101090;;;;
2023/04/02 02:20:01;;;;;;;1.7;1.7;;;;;;;5.3;100.0;101090;;;;
2023/04/02 02:21:02;;;;;;;1.7;1.7;;;;;;;5.3;100.0;101090;;;;
2023/04/02 02:22:06;;;;;;;1.7;1.7;;;;;;;5.3;100.0;101100;;;;
2023/04/02 02:23:00;;;;;;;1.7;1.7;;;;;;;5.3;100.0;101100;;;;
2023/04/02 02:24:00;;;;;;;2.0;2.0;;;;;;;5.3;100.0;101100;;;;
2023/04/02 02:25:04;;;;;;;2.0;2.0;;;;;;;5.3;100.0;101100;;;;
2023/04/02 02:26:00;;;;;;;2.0;2.0;;;;;;;5.4;100.0;101100;;;;
2023/04/02 02:27:10;;;;;;;2.0;2.0;;;;;;;5.4;100.0;101100;;;;
2023/04/02 02:28:10;;;;;;;2.0;2.0;;;;;;;5.4;100.0;101100;;;;
2023/04/02 02:29:02;;;;;;;2.0;2.0;;;;;;;5.4;100.0;101100;;;;
2023/04/02 02:30:06;;;;;;;2.0;2.0;;;;;;;5.4;100.0;101100;;;;
2023/04/02 02:31:03;;;;;;;2.0;2.0;;;;;;;5.4;100.0;101100;;;;
2023/04/02 02:32:01;;;;;;;2.0;2.0;;;;;;;5.4;100.0;101110;;;;
2023/04/02 02:33:05;;;;;;;2.0;2.0;;;;;;;5.4;100.0;101110;;;;
2023/04/02 02:34:05;;;;;;;2.0;2.0;;;;;;;5.5;100.0;101120;;;;
2023/04/02 02:35:10;;;;;;;2.0;2.0;;;;;;;5.5;100.0;101120;;;;
2023/04/02 02:36:03;;;;;;;2.0;2.0;;;;;;;5.6;100.0;101120;;;;
2023/04/02 02:37:05;;;;;;;2.0;2.0;;;;;;;5.6;100.0;101120;;;;
2023/04/02 02:38:10;;;;;;;2.0;2.0;;;;;;;5.6;100.0;101130;;;;
2023/04/02 02:39:04;;;;;;;2.0;2.0;;;;;;;5.6;100.0;101130;;;;
2023/04/02 02:40:03;;;;;;;2.0;2.0;;;;;;;5.8;100.0;101130;;;;
2023/04/02 02:41:03;;;;;;;2.0;2.0;;;;;;;5.8;100.0;101130;;;;
2023/04/02 02:42:03;;;;;;;2.0;2.0;;;;;;;5.7;100.0;101130;;;;
2023/04/02 02:43:01;;;;;;;2.0;2.0;;;;;;;5.7;100.0;101130;;;;
2023/04/02 02:44:05;;;;;;;1.8;1.8;;;;;;;5.6;100.0;101140;;;;
2023/04/02 02:45:01;;;;;;;1.8;1.8;;;;;;;5.6;100.0;101140;;;;
2023/04/02 02:46:02;;;;;;;1.8;1.8;;;;;;;5.6;100.0;101140;;;;
2023/04/02 02:47:00;;;;;;;1.8;1.8;;;;;;;5.6;100.0;101140;;;;
2023/04/02 02:48:01;;;;;;;1.8;1.8;;;;;;;5.4;100.0;101140;;;;
2023/04/02 02:49:03;;;;;;;1.8;1.8;;;;;;;5.4;100.0;101140;;;;
2023/04/02 02:50:06;;;;;;;1.8;1.8;;;;;;;5.3;100.0;101150;;;;
2023/04/02 02:51:03;;;;;;;1.8;1.8;;;;;;;5.3;100.0;101150;;;;
2023/04/02 02:52:00;;;;;;;1.8;1.8;;;;;;;5.3;100.0;101150;;;;
2023/04/02 02:53:03;;;;;;;1.8;1.8;;;;;;;5.3;100.0;101150;;;;
2023/04/02 02:54:01;;;;;;;1.8;1.8;;;;;;;5.3;100.0;101160;;;;
2023/04/02 02:55:03;;;;;;;1.8;1.8;;;;;;;5.3;100.0;101160;;;;
2023/04/02 02:56:01;;;;;;;1.8;1.8;;;;;;;5.3;100.0;101160;;;;
2023/04/02 02:57:02;;;;;;;1.8;1.8;;;;;;;5.3;100.0;101160;;;;
2023/04/02 02:58:03;;;;;;;1.8;1.8;;;;;;;5.2;100.0;101160;;;;
2023/04/02 02:59:00;;;;;;;1.8;1.8;;;;;;;5.2;100.0;101160;;;;
2023/04/02 03:00:00;;;;;;;1.8;1.8;;;;;;;5.2;100.0;101170;;;;
2023/04/02 03:01:00;;;;;;;1.8;1.8;;;;;;;5.2;100.0;101170;;;;
2023/04/02 03:02:01;;;;;;;1.8;1.8;;;;;;;5.2;100.0;101170;;;;
2023/04/02 03:03:03;;;;;;;1.8;1.8;;;;;;;5.2;100.0;101170;;;;
2023/04/02 03:04:00;;;;;;;1.9;1.9;;;;;;;5.2;100.0;101170;;;;
2023/04/02 03:05:03;;;;;;;1.9;1.9;;;;;;;5.2;100.0;101170;;;;
2023/04/02 03:06:04;;;;;;;1.9;1.9;;;;;;;5.2;100.0;101180;;;;
2023/04/02 03:07:02;;;;;;;1.9;1.9;;;;;;;5.2;100.0;101180;;;;
2023/04/02 03:08:02;;;;;;;1.9;1.9;;;;;;;5.2;100.0;101180;;;;
2023/04/02 03:09:00;;;;;;;1.9;1.9;;;;;;;5.2;100.0;101180;;;;
2023/04/02 03:10:04;;;;;;;1.9;1.9;;;;;;;5.1;100.0;101190;;;;
2023/04/02 03:11:05;;;;;;;1.9;1.9;;;;;;;5.1;100.0;101190;;;;
2023/04/02 03:12:10;;;;;;;1.9;1.9;;;;;;;5.2;100.0;101190;;;;
2023/04/02 03:13:00;;;;;;;1.9;1.9;;;;;;;5.2;100.0;101190;;;;
2023/04/02 03:14:09;;;;;;;1.9;1.9;;;;;;;5.2;100.0;101190;;;;
2023/04/02 03:15:07;;;;;;;1.9;1.9;;;;;;;5.2;100.0;101190;;;;
2023/04/02 03:16:10;;;;;;;1.9;1.9;;;;;;;5.1;100.0;101190;;;;
2023/04/02 03:17:06;;;;;;;1.9;1.9;;;;;;;5.1;100.0;101190;;;;
2023/04/02 03:18:05;;;;;;;1.9;1.9;;;;;;;5.1;100.0;101190;;;;
2023/04/02 03:19:04;;;;;;;1.9;1.9;;;;;;;5.1;100.0;101190;;;;
2023/04/02 03:20:05;;;;;;;1.9;1.9;;;;;;;5.1;100.0;101200;;;;
2023/04/02 03:21:06;;;;;;;1.9;1.9;;;;;;;5.1;100.0;101200;;;;
2023/04/02 03:22:11;;;;;;;1.9;1.9;;;;;;;5.2;100.0;101200;;;;
2023/04/02 03:23:10;;;;;;;1.9;1.9;;;;;;;5.2;100.0;101200;;;;
2023/04/02 03:24:02;;;;;;;1.7;1.7;;;;;;;5.1;100.0;101210;;;;
2023/04/02 03:25:05;;;;;;;1.7;1.7;;;;;;;5.1;100.0;101210;;;;
2023/04/02 03:26:06;;;;;;;1.7;1.7;;;;;;;5.0;100.0;101210;;;;
2023/04/02 03:27:04;;;;;;;1.7;1.7;;;;;;;5.0;100.0;101210;;;;
2023/04/02 03:28:02;;;;;;;1.7;1.7;;;;;;;5.1;100.0;101220;;;;
2023/04/02 03:29:04;;;;;;;1.7;1.7;;;;;;;5.1;100.0;101220;;;;
2023/04/02 03:30:00;;;;;;;1.7;1.7;;;;;;;5.0;100.0;101210;;;;
2023/04/02 03:31:04;;;;;;;1.7;1.7;;;;;;;5.0;100.0;101210;;;;
2023/04/02 03:32:04;;;;;;;1.7;1.7;;;;;;;5.0;100.0;101220;;;;
2023/04/02 03:33:02;;;;;;;1.7;1.7;;;;;;;5.0;100.0;101220;;;;
2023/04/02 03:34:03;;;;;;;1.7;1.7;;;;;;;5.0;100.0;101230;;;;
2023/04/02 03:35:09;;;;;;;1.7;1.7;;;;;;;5.0;100.0;101230;;;;
2023/04/02 03:36:11;;;;;;;1.7;1.7;;;;;;;5.2;100.0;101230;;;;
2023/04/02 03:37:07;;;;;;;1.7;1.7;;;;;;;5.2;100.0;101230;;;;
2023/04/02 03:38:03;;;;;;;1.7;1.7;;;;;;;5.1;100.0;101240;;;;
2023/04/02 03:39:10;;;;;;;1.7;1.7;;;;;;;5.1;100.0;101240;;;;
2023/04/02 03:40:09;;;;;;;1.7;1.7;;;;;;;5.0;100.0;101230;;;;
2023/04/02 03:41:03;;;;;;;1.7;1.7;;;;;;;5.0;100.0;101230;;;;
2023/04/02 03:42:04;;;;;;;1.7;1.7;;;;;;;4.9;100.0;101250;;;;
2023/04/02 03:43:05;;;;;;;1.7;1.7;;;;;;;4.9;100.0;101250;;;;
2023/04/02 03:44:06;;;;;;;1.9;1.9;;;;;;;4.9;100.0;101250;;;;
2023/04/02 03:45:10;;;;;;;1.9;1.9;;;;;;;4.9;100.0;101250;;;;
2023/04/02 03:46:09;;;;;;;1.9;1.9;;;;;;;4.8;100.0;101260;;;;
2023/04/02 03:47:04;;;;;;;1.9;1.9;;;;;;;4.8;100.0;101260;;;;
2023/04/02 03:48:04;;;;;;;1.9;1.9;;;;;;;4.9;100.0;101270;;;;
2023/04/02 03:49:05;;;;;;;1.9;1.9;;;;;;;4.9;100.0;101270;;;;
2023/04/02 03:50:00;;;;;;;1.9;1.9;;;;;;;4.8;100.0;101270;;;;
2023/04/02 03:51:10;;;;;;;1.9;1.9;;;;;;;4.8;100.0;101270;;;;
2023/04/02 03:52:04;;;;;;;1.9;1.9;;;;;;;4.9;100.0;101270;;;;
2023/04/02 03:53:02;;;;;;;1.9;1.9;;;;;;;4.9;100.0;101270;;;;
2023/04/02 03:54:00;;;;;;;1.9;1.9;;;;;;;5.0;100.0;101280;;;;
2023/04/02 03:55:01;;;;;;;1.9;1.9;;;;;;;5.0;100.0;101280;;;;
2023/04/02 03:56:01;;;;;;;1.9;1.9;;;;;;;5.1;100.0;101290;;;;
2023/04/02 03:57:00;;;;;;;1.9;1.9;;;;;;;5.1;100.0;101290;;;;
2023/04/02 03:58:06;;;;;;;1.9;1.9;;;;;;;5.1;100.0;101290;;;;
2023/04/02 03:59:05;;;;;;;1.9;1.9;;;;;;;5.1;100.0;101290;;;;
2023/04/02 04:00:00;;;;;;;1.9;1.9;;;;;;;5.0;100.0;101280;;;;
2023/04/02 04:01:05;;;;;;;1.9;1.9;;;;;;;5.0;100.0;101280;;;;
2023/04/02 04:02:03;;;;;;;1.9;1.9;;;;;;;5.0;100.0;101300;;;;
2023/04/02 04:03:10;;;;;;;1.9;1.9;;;;;;;5.0;100.0;101300;;;;
2023/04/02 04:04:02;;;;;;;2.3;2.3;;;;;;;4.9;100.0;101300;;;;
2023/04/02 04:05:01;;;;;;;2.3;2.3;;;;;;;4.9;100.0;101300;;;;
2023/04/02 04:06:04;;;;;;;2.3;2.3;;;;;;;4.9;100.0;101300;;;;
2023/04/02 04:07:00;;;;;;;2.3;2.3;;;;;;;4.9;100.0;101300;;;;
2023/04/02 04:08:04;;;;;;;2.3;2.3;;;;;;;4.8;100.0;101300;;;;
2023/04/02 04:09:09;;;;;;;2.3;2.3;;;;;;;4.8;100.0;101300;;;;
2023/04/02 04:10:01;;;;;;;2.3;2.3;;;;;;;5.0;100.0;101310;;;;
2023/04/02 04:11:02;;;;;;;2.3;2.3;;;;;;;5.0;100.0;101310;;;;
2023/04/02 04:12:07;;;;;;;2.3;2.3;;;;;;;4.7;100.0;101310;;;;
2023/04/02 04:13:02;;;;;;;2.3;2.3;;;;;;;4.7;100.0;101310;;;;
2023/04/02 04:14:10;;;;;;;2.3;2.3;;;;;;;4.7;100.0;101320;;;;
2023/04/02 04:15:06;;;;;;;2.3;2.3;;;;;;;4.7;100.0;101320;;;;
2023/04/02 04:16:04;;;;;;;2.3;2.3;;;;;;;4.7;100.0;101320;;;;
2023/04/02 04:17:08;;;;;;;2.3;2.3;;;;;;;4.7;100.0;101320;;;;
2023/04/02 04:18:03;;;;;;;2.3;2.3;;;;;;;4.8;100.0;101330;;;;
2023/04/02 04:19:09;;;;;;;2.3;2.3;;;;;;;4.8;100.0;101330;;;;
2023/04/02 04:20:09;;;;;;;2.3;2.3;;;;;;;4.6;100.0;101330;;;;
2023/04/02 04:21:01;;;;;;;2.3;2.3;;;;;;;4.6;100.0;101330;;;;
2023/04/02 04:22:08;;;;;;;2.3;2.3;;;;;;;4.6;100.0;101340;;;;
2023/04/02 04:23:09;;;;;;;2.3;2.3;;;;;;;4.6;100.0;101340;;;;
2023/04/02 04:24:02;;;;;;;2.0;2.0;;;;;;;4.5;100.0;101340;;;;
2023/04/02 04:25:03;;;;;;;2.0;2.0;;;;;;;4.5;100.0;101340;;;;
2023/04/02 04:26:10;;;;;;;2.0;2.0;;;;;;;4.5;100.0;101340;;;;
2023/04/02 04:27:10;;;;;;;2.0;2.0;;;;;;;4.5;100.0;101340;;;;
2023/04/02 04:28:09;;;;;;;2.0;2.0;;;;;;;4.5;100.0;101350;;;;
2023/04/02 04:29:04;;;;;;;2.0;2.0;;;;;;;4.5;100.0;101350;;;;
2023/04/02 04:30:04;;;;;;;2.0;2.0;;;;;;;4.5;100.0;101360;;;;
2023/04/02 04:31:03;;;;;;;2.0;2.0;;;;;;;4.5;100.0;101360;;;;
2023/04/02 04:32:11;;;;;;;2.0;2.0;;;;;;;4.6;100.0;101360;;;;
2023/04/02 04:33:04;;;;;;;2.0;2.0;;;;;;;4.6;100.0;101360;;;;
2023/04/02 04:34:05;;;;;;;2.0;2.0;;;;;;;4.5;100.0;101370;;;;
2023/04/02 04:35:06;;;;;;;2.0;2.0;;;;;;;4.5;100.0;101370;;;;
2023/04/02 04:36:02;;;;;;;2.0;2.0;;;;;;;4.4;100.0;101370;;;;
2023/04/02 04:37:02;;;;;;;2.0;2.0;;;;;;;4.4;100.0;101370;;;;
2023/04/02 04:38:04;;;;;;;2.0;2.0;;;;;;;4.4;100.0;101380;;;;
2023/04/02 04:39:06;;;;;;;2.0;2.0;;;;;;;4.4;100.0;101380;;;;
2023/04/02 04:40:06;;;;;;;2.0;2.0;;;;;;;4.3;100.0;101380;;;;
2023/04/02 04:41:02;;;;;;;2.0;2.0;;;;;;;4.3;100.0;101380;;;;
2023/04/02 04:42:02;;;;;;;2.0;2.0;;;;;;;4.4;100.0;101380;;;;
2023/04/02 04:43:02;;;;;;;2.0;2.0;;;;;;;4.4;100.0;101380;;;;
2023/04/02 04:44:05;;;;;;;2.0;2.0;;;;;;;4.5;100.0;101390;;;;
2023/04/02 04:45:07;;;;;;;2.0;2.0;;;;;;;4.5;100.0;101390;;;;
2023/04/02 04:46:04;;;;;;;2.0;2.0;;;;;;;4.3;100.0;101390;;;;
2023/04/02 04:47:02;;;;;;;2.0;2.0;;;;;;;4.3;100.0;101390;;;;
2023/04/02 04:48:10;;;;;;;2.0;2.0;;;;;;;4.3;100.0;101390;;;;
2023/04/02 04:49:07;;;;;;;2.0;2.0;;;;;;;4.3;100.0;101390;;;;
2023/04/02 04:50:05;;;;;;;2.0;2.0;;;;;;;4.2;100.0;101400;;;;
2023/04/02 04:51:00;;;;;;;2.0;2.0;;;;;;;4.2;100.0;101400;;;;
2023/04/02 04:52:00;;;;;;;2.0;2.0;;;;;;;4.2;100.0;101410;;;;
2023/04/02 04:53:04;;;;;;;2.0;2.0;;;;;;;4.2;100.0;101410;;;;
2023/04/02 04:54:00;;;;;;;2.0;2.0;;;;;;;4.1;100.0;101410;;;;
2023/04/02 04:55:00;;;;;;;2.0;2.0;;;;;;;4.1;100.0;101410;;;;
2023/04/02 04:56:12;;;;;;;2.0;2.0;;;;;;;4.1;100.0;101420;;;;
2023/04/02 04:57:02;;;;;;;2.0;2.0;;;;;;;4.1;100.0;101420;;;;
2023/04/02 04:58:08;;;;;;;2.0;2.0;;;;;;;4.2;100.0;101420;;;;
2023/04/02 04:59:00;;;;;;;2.0;2.0;;;;;;;4.2;100.0;101420;;;;
2023/04/02 05:00:00;;;;;;;2.0;2.0;;;;;;;4.4;100.0;101430;;;;
2023/04/02 05:01:00;;;;;;;2.0;2.0;;;;;;;4.4;100.0;101430;;;;
2023/04/02 05:02:10;;;;;;;2.0;2.0;;;;;;;4.3;100.0;101430;;;;
2023/04/02 05:03:05;;;;;;;2.0;2.0;;;;;;;4.3;100.0;101430;;;;
2023/04/02 05:04:10;;;;;;;2.2;2.2;;;;;;;4.2;100.0;101430;;;;
2023/04/02 05:05:01;;;;;;;2.2;2.2;;;;;;;4.2;100.0;101430;;;;
2023/04/02 05:06:05;;;;;;;2.2;2.2;;;;;;;4.2;100.0;101440;;;;
2023/04/02 05:07:10;;;;;;;2.2;2.2;;;;;;;4.2;100.0;101440;;;;
2023/04/02 05:08:08;;;;;;;2.2;2.2;;;;;;;4.1;100.0;101430;;;;
2023/04/02 05:09:06;;;;;;;2.2;2.2;;;;;;;4.1;100.0;101430;;;;
2023/04/02 05:10:00;;;;;;;2.2;2.2;;;;;;;4.2;100.0;101440;;;;
2023/04/02 05:11:03;;;;;;;2.2;2.2;;;;;;;4.2;100.0;101440;;;;
2023/04/02 05:12:04;;;;;;;2.2;2.2;;;;;;;4.2;100.0;101440;;;;
2023/04/02 05:13:00;;;;;;;2.2;2.2;;;;;;;4.2;100.0;101440;;;;
2023/04/02 05:14:03;;;;;;;2.2;2.2;;;;;;;4.3;100.0;101450;;;;
2023/04/02 05:15:05;;;;;;;2.2;2.2;;;;;;;4.3;100.0;101450;;;;
2023/04/02 05:16:10;;;;;;;2.2;2.2;;;;;;;4.3;100.0;101450;;;;
2023/04/02 05:17:04;;;;;;;2.2;2.2;;;;;;;4.3;100.0;101450;;;;
2023/04/02 05:18:10;;;;;;;2.2;2.2;;;;;;;4.2;100.0;101450;;;;
2023/04/02 05:19:03;;;;;;;2.2;2.2;;;;;;;4.2;100.0;101450;;;;
2023/04/02 05:20:08;;;;;;;2.2;2.2;;;;;;;4.2;100.0;101450;;;;
2023/04/02 05:21:06;;;;;;;2.2;2.2;;;;;;;4.2;100.0;101450;;;;
2023/04/02 05:22:00;;;;;;;2.2;2.2;;;;;;;4.3;100.0;101450;;;;
2023/04/02 05:23:05;;;;;;;2.2;2.2;;;;;;;4.3;100.0;101450;;;;
2023/04/02 05:24:10;;;;;;;1.9;1.9;;;;;;;4.2;100.0;101460;;;;
2023/04/02 05:25:10;;;;;;;1.9;1.9;;;;;;;4.2;100.0;101460;;;;
2023/04/02 05:26:10;;;;;;;1.9;1.9;;;;;;;4.2;100.0;101460;;;;
2023/04/02 05:27:03;;;;;;;1.9;1.9;;;;;;;4.2;100.0;101460;;;;
2023/04/02 05:28:03;;;;;;;1.9;1.9;;;;;;;4.1;100.0;101470;;;;
2023/04/02 05:29:00;;;;;;;1.9;1.9;;;;;;;4.1;100.0;101470;;;;
2023/04/02 05:30:06;;;;;;;1.9;1.9;;;;;;;4.3;100.0;101470;;;;
2023/04/02 05:31:03;;;;;;;1.9;1.9;;;;;;;4.3;100.0;101470;;;;
2023/04/02 05:32:05;;;;;;;1.9;1.9;;;;;;;4.3;100.0;101480;;;;
2023/04/02 05:33:06;;;;;;;1.9;1.9;;;;;;;4.3;100.0;101480;;;;
2023/04/02 05:34:00;;;;;;;1.9;1.9;;;;;;;4.4;100.0;101480;;;;
2023/04/02 05:35:04;;;;;;;1.9;1.9;;;;;;;4.4;100.0;101480;;;;
2023/04/02 05:36:03;;;;;;;1.9;1.9;;;;;;;4.4;100.0;101480;;;;
2023/04/02 05:37:00;;;;;;;1.9;1.9;;;;;;;4.4;100.0;101480;;;;
2023/04/02 05:38:00;;;;;;;1.9;1.9;;;;;;;4.4;100.0;101490;;;;
2023/04/02 05:39:00;;;;;;;1.9;1.9;;;;;;;4.4;100.0;101490;;;;
2023/04/02 05:40:11;;;;;;;1.9;1.9;;;;;;;4.3;100.0;101490;;;;
2023/04/02 05:41:02;;;;;;;1.9;1.9;;;;;;;4.3;100.0;101490;;;;
2023/04/02 05:42:05;;;;;;;1.9;1.9;;;;;;;4.3;100.0;101490;;;;
2023/04/02 05:43:02;;;;;;;1.9;1.9;;;;;;;4.3;100.0;101490;;;;
2023/04/02 05:44:06;;;;;;;2.1;2.1;;;;;;;4.3;100.0;101500;;;;
2023/04/02 05:45:00;;;;;;;2.1;2.1;;;;;;;4.3;100.0;101500;;;;
2023/04/02 05:46:03;;;;;;;2.1;2.1;;;;;;;4.2;100.0;101500;;;;
2023/04/02 05:47:03;;;;;;;2.1;2.1;;;;;;;4.2;100.0;101500;;;;
2023/04/02 05:48:02;;;;;;;2.1;2.1;;;;;;;4.2;100.0;101500;;;;
2023/04/02 05:49:03;;;;;;;2.1;2.1;;;;;;;4.2;100.0;101500;;;;
2023/04/02 05:50:01;;;;;;;2.1;2.1;;;;;;;4.2;100.0;101500;;;;
2023/04/02 05:51:03;;;;;;;2.1;2.1;;;;;;;4.2;100.0;101500;;;;
2023/04/02 05:52:01;;;;;;;2.1;2.1;;;;;;;4.2;100.0;101510;;;;
2023/04/02 05:53:03;;;;;;;2.1;2.1;;;;;;;4.2;100.0;101510;;;;
2023/04/02 05:54:04;;;;;;;2.1;2.1;;;;;;;4.0;100.0;101520;;;;
2023/04/02 05:55:10;;;;;;;2.1;2.1;;;;;;;4.0;100.0;101520;;;;
2023/04/02 05:56:10;;;;;;;2.1;2.1;;;;;;;4.0;100.0;101520;;;;
2023/04/02 05:57:02;;;;;;;2.1;2.1;;;;;;;4.0;100.0;101520;;;;
2023/04/02 05:58:14;;;;;;;2.1;2.1;;;;;;;4.2;100.0;101520;;;;
2023/04/02 05:59:07;;;;;;;2.1;2.1;;;;;;;4.2;100.0;101520;;;;
2023/04/02 06:00:04;;;;;;;2.1;2.1;;;;;;;4.1;100.0;101540;;;;
2023/04/02 06:01:03;;;;;;;2.1;2.1;;;;;;;4.1;100.0;101540;;;;
2023/04/02 06:02:03;;;;;;;2.1;2.1;;;;;;;4.1;100.0;101540;;;;
2023/04/02 06:03:06;;;;;;;2.3;2.3;;;;;;;4.1;100.0;101540;;;;
2023/04/02 06:04:06;;;;;;;2.3;2.3;;;;;;;4.1;100.0;101550;;;;
2023/04/02 06:05:10;;;;;;;2.3;2.3;;;;;;;4.1;100.0;101550;;;;
2023/04/02 06:06:02;;;;;;;2.3;2.3;;;;;;;3.9;100.0;101550;;;;
2023/04/02 06:07:03;;;;;;;2.3;2.3;;;;;;;3.9;100.0;101550;;;;
2023/04/02 06:08:05;;;;;;;2.3;2.3;;;;;;;4.0;100.0;101560;;;;
2023/04/02 06:09:07;;;;;;;2.3;2.3;;;;;;;4.0;100.0;101560;;;;
2023/04/02 06:10:05;;;;;;;2.3;2.3;;;;;;;4.1;100.0;101560;;;;
2023/04/02 06:11:05;;;;;;;2.3;2.3;;;;;;;4.1;100.0;101560;;;;
2023/04/02 06:12:09;;;;;;;2.3;2.3;;;;;;;4.0;100.0;101570;;;;
2023/04/02 06:13:05;;;;;;;2.3;2.3;;;;;;;4.0;100.0;101570;;;;
2023/04/02 06:14:02;;;;;;;2.3;2.3;;;;;;;4.0;100.0;101570;;;;
2023/04/02 06:15:00;;;;;;;2.3;2.3;;;;;;;4.0;100.0;101570;;;;
2023/04/02 06:16:01;;;;;;;2.3;2.3;;;;;;;3.7;100.0;101580;;;;
2023/04/02 06:17:00;;;;;;;2.3;2.3;;;;;;;3.7;100.0;101580;;;;
2023/04/02 06:18:05;;;;;;;2.3;2.3;;;;;;;3.7;100.0;101580;;;;
2023/04/02 06:19:00;;;;;;;2.3;2.3;;;;;;;3.7;100.0;101580;;;;
2023/04/02 06:20:02;;;;;;;2.3;2.3;;;;;;;3.7;100.0;101590;;;;
2023/04/02 06:21:00;;;;;;;2.3;2.3;;;;;;;3.7;100.0;101590;;;;
2023/04/02 06:22:08;;;;;;;2.3;2.3;;;;;;;3.7;100.0;101590;;;;
2023/04/02 06:23:02;;;;;;;2.0;2.0;;;;;;;3.7;100.0;101590;;;;
2023/04/02 06:24:02;;;;;;;2.0;2.0;;;;;;;3.9;100.0;101590;;;;
2023/04/02 06:25:04;;;;;;;2.0;2.0;;;;;;;3.9;100.0;101590;;;;
2023/04/02 06:26:03;;;;;;;2.0;2.0;;;;;;;3.8;100.0;101600;;;;
2023/04/02 06:27:05;;;;;;;2.0;2.0;;;;;;;3.8;100.0;101600;;;;
2023/04/02 06:28:02;;;;;;;2.0;2.0;;;;;;;3.8;100.0;101600;;;;
2023/04/02 06:29:04;;;;;;;2.0;2.0;;;;;;;3.8;100.0;101600;;;;